createdAt,value
2022-07-26T00:01:31.541Z,5.73
2022-07-26T00:03:59.030Z,6.10
2022-07-26T00:06:25.880Z,5.63
2022-07-26T00:08:52.474Z,5.47
2022-07-26T00:11:19.060Z,5.80
2022-07-26T00:13:45.716Z,5.83
2022-07-26T00:16:12.378Z,5.17
2022-07-26T00:18:39.158Z,5.37
2022-07-26T00:21:05.876Z,5.90
2022-07-26T00:23:33.520Z,5.80
2022-07-26T00:26:00.078Z,5.70
2022-07-26T00:28:26.610Z,5.67
2022-07-26T00:30:53.157Z,5.30
2022-07-26T00:33:19.717Z,5.40
2022-07-26T00:35:46.308Z,6.40
2022-07-26T00:38:12.918Z,9.83
2022-07-26T00:40:39.453Z,5.20
2022-07-26T00:43:06.012Z,5.33
2022-07-26T00:45:32.537Z,5.63
2022-07-26T00:47:59.100Z,5.03
2022-07-26T00:50:25.635Z,5.50
2022-07-26T00:52:52.242Z,5.37
2022-07-26T00:55:18.835Z,5.20
2022-07-26T00:57:45.444Z,6.03
2022-07-26T01:00:14.331Z,5.60
2022-07-26T01:02:41.137Z,5.33
2022-07-26T01:05:08.037Z,5.77
2022-07-26T01:07:35.071Z,5.40
2022-07-26T01:10:03.188Z,5.53
2022-07-26T01:12:29.742Z,5.67
2022-07-26T01:14:56.272Z,5.23
2022-07-26T01:17:22.817Z,5.17
2022-07-26T01:19:49.376Z,5.13
2022-07-26T01:22:15.918Z,5.50
2022-07-26T01:24:42.653Z,4.80
2022-07-26T01:27:09.209Z,5.20
2022-07-26T01:29:36.214Z,5.33
2022-07-26T01:32:04.899Z,5.37
2022-07-26T01:34:31.664Z,5.23
2022-07-26T01:36:58.476Z,5.23
2022-07-26T01:39:25.009Z,5.40
2022-07-26T01:41:51.572Z,5.43
2022-07-26T01:44:18.114Z,5.07
2022-07-26T01:46:44.673Z,5.53
2022-07-26T01:49:11.274Z,5.20
2022-07-26T01:51:37.892Z,4.80
2022-07-26T01:54:04.829Z,4.97
2022-07-26T01:56:31.581Z,5.23
2022-07-26T01:58:58.205Z,5.03
2022-07-26T02:01:39.535Z,5.20
2022-07-26T02:04:08.218Z,4.77
2022-07-26T02:06:35.208Z,4.90
2022-07-26T02:09:02.022Z,4.43
2022-07-26T02:11:28.726Z,4.63
2022-07-26T02:13:55.326Z,4.97
2022-07-26T02:16:21.939Z,5.13
2022-07-26T02:18:48.586Z,5.20
2022-07-26T02:21:15.165Z,4.80
2022-07-26T02:23:42.228Z,5.30
2022-07-26T02:26:08.982Z,5.30
2022-07-26T02:28:35.628Z,4.40
2022-07-26T02:31:02.252Z,4.90
2022-07-26T02:33:28.865Z,4.90
2022-07-26T02:35:55.613Z,5.20
2022-07-26T02:38:22.306Z,4.93
2022-07-26T02:40:52.492Z,4.60
2022-07-26T02:43:19.444Z,4.37
2022-07-26T02:46:00.817Z,4.67
2022-07-26T02:48:30.024Z,4.30
2022-07-26T02:50:56.659Z,4.60
2022-07-26T02:53:23.208Z,4.53
2022-07-26T02:55:49.758Z,4.70
2022-07-26T02:58:16.393Z,4.73
2022-07-26T03:00:43.031Z,4.53
2022-07-26T03:03:10.977Z,4.67
2022-07-26T03:05:37.608Z,4.80
2022-07-26T03:08:04.391Z,4.40
2022-07-26T03:10:30.968Z,4.50
2022-07-26T03:12:57.750Z,4.40
2022-07-26T03:15:24.523Z,4.63
2022-07-26T03:17:51.227Z,3.90
2022-07-26T03:20:17.804Z,4.63
2022-07-26T03:22:44.369Z,4.63
2022-07-26T03:25:10.951Z,4.43
2022-07-26T03:27:37.562Z,4.70
2022-07-26T03:30:05.361Z,4.50
2022-07-26T03:32:31.877Z,4.67
2022-07-26T03:34:58.477Z,4.40
2022-07-26T03:37:25.162Z,4.50
2022-07-26T03:39:51.746Z,4.50
2022-07-26T03:42:18.288Z,4.70
2022-07-26T03:44:44.843Z,4.70
2022-07-26T03:47:11.435Z,4.00
2022-07-26T03:49:38.027Z,4.67
2022-07-26T03:52:04.700Z,4.20
2022-07-26T03:54:31.263Z,4.40
2022-07-26T03:56:57.837Z,4.27
2022-07-26T03:59:25.543Z,4.20
2022-07-26T04:01:52.275Z,4.40
2022-07-26T04:04:18.955Z,4.40
2022-07-26T04:06:51.848Z,4.43
2022-07-26T04:09:19.499Z,4.80
2022-07-26T04:11:47.855Z,4.80
2022-07-26T04:14:14.549Z,4.07
2022-07-26T04:16:43.583Z,4.60
2022-07-26T04:19:10.561Z,4.10
2022-07-26T04:21:37.086Z,4.37
2022-07-26T04:24:03.983Z,4.10
2022-07-26T04:26:30.639Z,4.20
2022-07-26T04:28:57.221Z,4.20
2022-07-26T04:31:24.103Z,4.13
2022-07-26T04:33:51.546Z,4.30
2022-07-26T04:36:18.115Z,4.57
2022-07-26T04:38:44.817Z,3.83
2022-07-26T04:41:11.496Z,4.13
2022-07-26T04:43:38.087Z,4.63
2022-07-26T04:46:04.682Z,4.00
2022-07-26T04:48:31.360Z,4.27
2022-07-26T04:50:57.949Z,3.97
2022-07-26T04:53:24.506Z,4.03
2022-07-26T04:55:51.088Z,4.10
2022-07-26T04:58:17.664Z,4.70
2022-07-26T05:01:08.963Z,4.20
2022-07-26T05:03:33.020Z,4.43
2022-07-26T05:05:59.570Z,4.50
2022-07-26T05:08:26.105Z,4.37
2022-07-26T05:10:55.660Z,4.30
2022-07-26T05:13:25.241Z,4.30
2022-07-26T05:15:56.815Z,4.47
2022-07-26T05:18:23.497Z,4.10
2022-07-26T05:20:51.025Z,3.80
2022-07-26T05:23:17.585Z,4.37
2022-07-26T05:25:44.149Z,4.33
2022-07-26T05:28:10.751Z,4.37
2022-07-26T05:30:37.450Z,5.17
2022-07-26T05:33:04.012Z,7.50
2022-07-26T05:35:30.581Z,5.43
2022-07-26T05:37:57.178Z,5.50
2022-07-26T05:40:23.790Z,5.80
2022-07-26T05:42:50.350Z,5.07
2022-07-26T05:45:17.132Z,4.93
2022-07-26T05:47:43.763Z,4.03
2022-07-26T05:50:10.468Z,4.57
2022-07-26T05:52:36.992Z,4.37
2022-07-26T05:55:03.836Z,3.80
2022-07-26T05:57:30.419Z,4.43
2022-07-26T05:59:56.992Z,4.23
2022-07-26T06:02:23.630Z,4.83
2022-07-26T06:04:50.294Z,4.40
2022-07-26T06:07:16.854Z,5.00
2022-07-26T06:09:43.460Z,4.33
2022-07-26T06:12:10.035Z,11.87
2022-07-26T06:14:36.605Z,3.87
2022-07-26T06:17:04.493Z,6.60
2022-07-26T06:19:31.257Z,11.63
2022-07-26T06:21:57.850Z,4.30
2022-07-26T06:24:24.377Z,4.13
2022-07-26T06:26:56.774Z,4.07
2022-07-26T06:29:24.590Z,5.07
2022-07-26T06:31:59.057Z,4.07
2022-07-26T06:34:25.666Z,4.80
2022-07-26T06:36:52.231Z,6.17
2022-07-26T06:39:18.813Z,4.70
2022-07-26T06:41:45.362Z,3.63
2022-07-26T06:44:12.122Z,4.00
2022-07-26T06:46:38.795Z,3.90
2022-07-26T06:49:05.607Z,4.87
2022-07-26T06:51:33.698Z,4.00
2022-07-26T06:54:00.925Z,4.33
2022-07-26T06:56:27.715Z,4.00
2022-07-26T06:58:55.319Z,4.00
2022-07-26T07:01:55.524Z,3.80
2022-07-26T07:04:09.331Z,3.40
2022-07-26T07:06:36.456Z,3.97
2022-07-26T07:09:03.013Z,3.67
2022-07-26T07:11:29.565Z,3.60
2022-07-26T07:13:56.315Z,4.53
2022-07-26T07:16:22.916Z,4.10
2022-07-26T07:18:51.257Z,3.50
2022-07-26T07:21:17.793Z,4.00
2022-07-26T07:23:44.364Z,3.67
2022-07-26T07:26:11.082Z,4.27
2022-07-26T07:28:40.590Z,3.97
2022-07-26T07:31:07.158Z,3.97
2022-07-26T07:33:43.584Z,4.23
2022-07-26T07:36:19.760Z,3.50
2022-07-26T07:38:46.302Z,4.23
2022-07-26T07:41:12.881Z,4.50
2022-07-26T07:43:39.507Z,3.80
2022-07-26T07:46:06.285Z,3.53
2022-07-26T07:48:32.930Z,5.27
2022-07-26T07:50:59.499Z,3.50
2022-07-26T07:53:26.290Z,3.83
2022-07-26T07:55:55.333Z,4.20
2022-07-26T07:58:22.060Z,3.20
2022-07-26T08:00:48.791Z,4.00
2022-07-26T08:03:18.615Z,3.40
2022-07-26T08:05:47.003Z,4.53
2022-07-26T08:08:16.964Z,3.40
2022-07-26T08:10:51.459Z,4.07
2022-07-26T08:13:21.049Z,3.60
2022-07-26T08:15:48.239Z,3.47
2022-07-26T08:18:17.017Z,3.00
2022-07-26T08:20:46.066Z,3.30
2022-07-26T08:23:12.649Z,3.57
2022-07-26T08:25:50.084Z,3.57
2022-07-26T08:28:38.109Z,3.50
2022-07-26T08:31:09.045Z,3.30
2022-07-26T08:33:35.641Z,3.50
2022-07-26T08:36:07.273Z,3.60
2022-07-26T08:38:33.850Z,3.33
2022-07-26T08:41:00.479Z,3.63
2022-07-26T08:43:27.040Z,3.47
2022-07-26T08:45:57.631Z,4.80
2022-07-26T08:48:24.188Z,3.43
2022-07-26T08:50:50.729Z,4.40
2022-07-26T08:53:17.323Z,3.47
2022-07-26T08:56:05.913Z,3.23
2022-07-26T08:58:35.433Z,3.40
2022-07-26T09:01:12.736Z,3.63
2022-07-26T09:03:39.508Z,3.40
2022-07-26T09:06:12.910Z,3.60
2022-07-26T09:08:39.457Z,3.87
2022-07-26T09:11:24.100Z,3.83
2022-07-26T09:14:01.030Z,3.17
2022-07-26T09:16:28.210Z,3.30
2022-07-26T09:18:55.040Z,3.77
2022-07-26T09:21:28.808Z,3.87
2022-07-26T09:23:55.464Z,3.40
2022-07-26T09:26:23.393Z,3.10
2022-07-26T09:29:10.674Z,3.47
2022-07-26T09:31:38.390Z,3.47
2022-07-26T09:34:06.148Z,3.37
2022-07-26T09:36:33.104Z,3.50
2022-07-26T09:39:03.672Z,3.07
2022-07-26T09:41:31.938Z,3.80
2022-07-26T09:44:00.866Z,3.13
2022-07-26T09:46:28.168Z,4.00
2022-07-26T09:49:10.620Z,3.30
2022-07-26T09:51:40.346Z,3.20
2022-07-26T09:54:07.920Z,6.20
2022-07-26T09:56:45.902Z,3.30
2022-07-26T09:59:14.144Z,4.27
2022-07-26T10:01:40.769Z,4.17
2022-07-26T10:04:07.933Z,3.77
2022-07-26T10:06:34.766Z,3.77
2022-07-26T10:09:01.449Z,3.43
2022-07-26T10:11:29.564Z,4.70
2022-07-26T10:13:57.520Z,3.87
2022-07-26T10:16:31.544Z,3.70
2022-07-26T10:18:59.335Z,5.57
2022-07-26T10:21:30.286Z,3.70
2022-07-26T10:24:00.670Z,4.27
2022-07-26T10:26:33.721Z,4.50
2022-07-26T10:29:15.849Z,4.43
2022-07-26T10:31:43.215Z,4.83
2022-07-26T10:34:10.306Z,4.80
2022-07-26T10:36:40.119Z,6.13
2022-07-26T10:39:10.365Z,7.47
2022-07-26T10:41:42.602Z,6.10
2022-07-26T10:44:12.523Z,4.77
2022-07-26T10:47:02.146Z,10.63
2022-07-26T10:49:29.365Z,6.37
2022-07-26T10:52:18.729Z,6.40
2022-07-26T10:54:57.317Z,7.83
2022-07-26T10:57:24.810Z,8.67
2022-07-26T10:59:56.129Z,11.13
2022-07-26T11:02:26.289Z,9.97
2022-07-26T11:05:13.296Z,10.57
2022-07-26T11:08:04.882Z,8.43
2022-07-26T11:10:41.938Z,7.97
2022-07-26T11:13:16.078Z,9.57
2022-07-26T11:15:47.014Z,12.90
2022-07-26T11:18:14.717Z,10.60
2022-07-26T11:20:41.852Z,7.60
2022-07-26T11:23:27.378Z,11.10
2022-07-26T11:26:06.964Z,11.57
2022-07-26T11:28:43.357Z,11.87
2022-07-26T11:31:13.345Z,11.90
2022-07-26T11:33:42.492Z,11.03
2022-07-26T11:36:09.761Z,11.30
2022-07-26T11:38:52.482Z,11.27
2022-07-26T11:41:34.352Z,9.83
2022-07-26T11:44:02.469Z,9.17
2022-07-26T11:46:38.802Z,11.60
2022-07-26T11:49:12.736Z,8.37
2022-07-26T11:51:39.307Z,10.80
2022-07-26T11:54:05.883Z,11.07
2022-07-26T11:56:32.850Z,9.43
2022-07-26T11:58:59.485Z,10.13
2022-07-26T12:01:26.573Z,9.83
2022-07-26T12:03:53.956Z,11.20
2022-07-26T12:06:22.698Z,9.70
2022-07-26T12:08:56.966Z,12.97
2022-07-26T12:11:25.607Z,9.27
2022-07-26T12:13:57.217Z,10.83
2022-07-26T12:16:38.725Z,12.17
2022-07-26T12:19:06.009Z,14.73
2022-07-26T12:21:46.304Z,9.80
2022-07-26T12:24:33.459Z,12.17
2022-07-26T12:27:08.754Z,10.47
2022-07-26T12:29:36.509Z,9.77
2022-07-26T12:32:16.893Z,9.73
2022-07-26T12:34:56.093Z,10.57
2022-07-26T12:37:27.077Z,11.27
2022-07-26T12:40:09.673Z,11.93
2022-07-26T12:42:37.063Z,10.37
2022-07-26T12:45:04.370Z,12.90
2022-07-26T12:47:30.967Z,12.23
2022-07-26T12:50:01.333Z,9.60
2022-07-26T12:52:27.882Z,11.33
2022-07-26T12:54:54.601Z,11.57
2022-07-26T12:57:21.437Z,12.27
2022-07-26T12:59:48.403Z,13.07
2022-07-26T13:02:16.748Z,12.03
2022-07-26T13:04:43.338Z,10.40
2022-07-26T13:07:09.960Z,9.47
2022-07-26T13:09:36.861Z,9.37
2022-07-26T13:12:04.495Z,9.63
2022-07-26T13:14:32.640Z,8.73
2022-07-26T13:16:59.282Z,11.83
2022-07-26T13:19:25.856Z,8.53
2022-07-26T13:21:53.163Z,10.03
2022-07-26T13:24:19.904Z,10.47
2022-07-26T13:26:47.868Z,12.50
2022-07-26T13:29:14.425Z,9.93
2022-07-26T13:31:40.978Z,10.20
2022-07-26T13:34:07.926Z,10.23
2022-07-26T13:36:34.729Z,11.00
2022-07-26T13:39:01.325Z,8.67
2022-07-26T13:41:28.998Z,9.53
2022-07-26T13:43:57.871Z,10.40
2022-07-26T13:46:32.689Z,9.13
2022-07-26T13:49:01.617Z,9.77
2022-07-26T13:51:51.288Z,9.67
2022-07-26T13:54:18.329Z,8.63
2022-07-26T13:56:45.074Z,7.23
2022-07-26T13:59:11.711Z,9.27
2022-07-26T14:01:44.653Z,9.23
2022-07-26T14:04:13.141Z,8.33
2022-07-26T14:06:40.089Z,11.67
2022-07-26T14:09:10.557Z,8.20
2022-07-26T14:11:37.923Z,9.70
2022-07-26T14:14:04.583Z,7.60
2022-07-26T14:16:31.283Z,8.93
2022-07-26T14:18:58.410Z,8.23
2022-07-26T14:21:28.596Z,7.50
2022-07-26T14:24:05.249Z,8.50
2022-07-26T14:26:31.917Z,9.67
2022-07-26T14:28:58.516Z,10.90
2022-07-26T14:31:25.266Z,8.50
2022-07-26T14:33:51.909Z,9.33
2022-07-26T14:36:18.486Z,8.23
2022-07-26T14:38:45.068Z,8.67
2022-07-26T14:41:11.630Z,8.10
2022-07-26T14:43:38.294Z,10.53
2022-07-26T14:46:05.071Z,7.13
2022-07-26T14:48:52.794Z,7.90
2022-07-26T14:51:18.294Z,7.67
2022-07-26T14:53:44.842Z,7.77
2022-07-26T14:56:11.415Z,8.57
2022-07-26T14:58:38.566Z,5.93
2022-07-26T15:01:05.203Z,8.43
2022-07-26T15:03:33.851Z,7.90
2022-07-26T15:06:00.447Z,7.83
2022-07-26T15:08:26.998Z,6.23
2022-07-26T15:10:53.547Z,9.13
2022-07-26T15:13:20.254Z,7.33
2022-07-26T15:15:46.779Z,6.60
2022-07-26T15:18:13.313Z,7.17
2022-07-26T15:20:40.807Z,6.43
2022-07-26T15:23:08.820Z,8.23
2022-07-26T15:25:38.303Z,7.87
2022-07-26T15:28:04.916Z,9.00
2022-07-26T15:30:31.951Z,8.33
2022-07-26T15:32:59.060Z,8.17
2022-07-26T15:35:25.657Z,7.00
2022-07-26T15:37:52.228Z,6.13
2022-07-26T15:40:20.718Z,7.40
2022-07-26T15:42:49.013Z,7.07
2022-07-26T15:45:16.017Z,6.60
2022-07-26T15:48:10.588Z,6.60
2022-07-26T15:50:30.324Z,7.17
2022-07-26T15:52:56.860Z,6.27
2022-07-26T15:55:23.428Z,7.07
2022-07-26T15:57:50.034Z,5.90
2022-07-26T16:00:16.923Z,6.27
2022-07-26T16:02:43.726Z,5.87
2022-07-26T16:05:10.496Z,5.53
2022-07-26T16:07:37.817Z,5.57
2022-07-26T16:10:04.673Z,5.47
2022-07-26T16:12:31.309Z,4.60
2022-07-26T16:14:57.904Z,5.67
2022-07-26T16:17:25.258Z,5.90
2022-07-26T16:19:52.865Z,6.27
2022-07-26T16:22:19.450Z,6.90
2022-07-26T16:24:46.102Z,5.27
2022-07-26T16:27:12.691Z,4.97
2022-07-26T16:29:39.239Z,6.33
2022-07-26T16:32:11.092Z,4.80
2022-07-26T16:34:37.843Z,5.17
2022-07-26T16:37:04.584Z,5.10
2022-07-26T16:39:31.221Z,4.93
2022-07-26T16:41:59.826Z,4.20
2022-07-26T16:44:29.896Z,8.50
2022-07-26T16:46:57.262Z,7.57
2022-07-26T16:49:23.921Z,7.17
2022-07-26T16:51:50.544Z,7.40
2022-07-26T16:54:17.073Z,5.00
2022-07-26T16:56:43.645Z,5.00
2022-07-26T16:59:10.716Z,5.67
2022-07-26T17:01:37.538Z,4.87
2022-07-26T17:04:04.105Z,5.03
2022-07-26T17:06:30.686Z,5.37
2022-07-26T17:08:57.216Z,5.53
2022-07-26T17:11:23.754Z,4.67
2022-07-26T17:13:50.349Z,4.83
2022-07-26T17:16:20.130Z,3.37
2022-07-26T17:18:51.063Z,4.07
2022-07-26T17:21:17.633Z,3.43
2022-07-26T17:23:44.187Z,5.47
2022-07-26T17:26:10.746Z,4.27
2022-07-26T17:28:37.276Z,3.43
2022-07-26T17:31:03.880Z,5.17
2022-07-26T17:33:30.445Z,3.90
2022-07-26T17:36:00.729Z,4.80
2022-07-26T17:38:30.031Z,3.93
2022-07-26T17:40:56.942Z,5.10
2022-07-26T17:43:23.501Z,4.43
2022-07-26T17:45:50.528Z,4.53
2022-07-26T17:48:17.109Z,4.13
2022-07-26T17:50:43.640Z,4.13
2022-07-26T17:53:10.217Z,5.00
2022-07-26T17:55:36.782Z,3.63
2022-07-26T17:58:03.359Z,4.40
2022-07-26T18:00:29.968Z,3.93
2022-07-26T18:02:57.075Z,5.80
2022-07-26T18:05:29.940Z,3.50
2022-07-26T18:07:59.173Z,4.70
2022-07-26T18:10:27.567Z,4.60
2022-07-26T18:12:54.541Z,4.80
2022-07-26T18:15:21.145Z,4.00
2022-07-26T18:17:47.683Z,3.83
2022-07-26T18:20:14.285Z,4.67
2022-07-26T18:22:40.865Z,3.77
2022-07-26T18:25:07.728Z,3.63
2022-07-26T18:27:34.293Z,3.73
2022-07-26T18:30:00.905Z,3.57
2022-07-26T18:32:27.496Z,3.67
2022-07-26T18:34:54.096Z,4.20
2022-07-26T18:37:20.862Z,4.90
2022-07-26T18:39:47.992Z,4.27
2022-07-26T18:42:14.568Z,3.73
2022-07-26T18:44:41.170Z,4.00
2022-07-26T18:47:07.754Z,3.73
2022-07-26T18:49:34.552Z,3.53
2022-07-26T18:52:08.441Z,5.20
2022-07-26T18:54:35.965Z,4.37
2022-07-26T18:57:02.568Z,4.37
2022-07-26T18:59:29.774Z,6.10
2022-07-26T19:01:57.723Z,7.07
2022-07-26T19:04:24.762Z,8.90
2022-07-26T19:06:51.503Z,5.53
2022-07-26T19:09:18.305Z,5.13
2022-07-26T19:11:47.456Z,4.90
2022-07-26T19:14:13.990Z,3.83
2022-07-26T19:16:40.603Z,8.43
2022-07-26T19:19:07.241Z,3.90
2022-07-26T19:21:33.804Z,4.83
2022-07-26T19:24:00.373Z,5.63
2022-07-26T19:26:27.521Z,5.83
2022-07-26T19:28:54.275Z,7.43
2022-07-26T19:31:21.544Z,5.33
2022-07-26T19:33:48.176Z,5.97
2022-07-26T19:36:15.941Z,7.67
2022-07-26T19:38:52.945Z,6.30
2022-07-26T19:41:20.001Z,4.53
2022-07-26T19:43:46.588Z,8.47
2022-07-26T19:46:13.267Z,6.60
2022-07-26T19:48:39.959Z,7.43
2022-07-26T19:51:06.528Z,4.10
2022-07-26T19:53:33.062Z,3.37
2022-07-26T19:55:59.783Z,8.63
2022-07-26T19:58:27.153Z,13.07
2022-07-26T20:00:53.952Z,9.20
2022-07-26T20:03:20.643Z,5.30
2022-07-26T20:05:47.188Z,4.57
2022-07-26T20:08:13.827Z,5.23
2022-07-26T20:10:40.377Z,4.93
2022-07-26T20:13:06.932Z,3.83
2022-07-26T20:15:33.454Z,6.57
2022-07-26T20:18:00.017Z,3.37
2022-07-26T20:20:26.718Z,4.57
2022-07-26T20:22:53.253Z,11.27
2022-07-26T20:25:21.871Z,5.93
2022-07-26T20:27:51.320Z,4.67
2022-07-26T20:30:18.278Z,3.30
2022-07-26T20:32:44.924Z,3.90
2022-07-26T20:35:11.485Z,3.67
2022-07-26T20:37:38.186Z,2.97
2022-07-26T20:40:05.394Z,4.10
2022-07-26T20:42:34.966Z,3.17
2022-07-26T20:45:01.959Z,3.30
2022-07-26T20:47:28.508Z,4.40
2022-07-26T20:49:59.642Z,2.93
2022-07-26T20:52:29.335Z,3.77
2022-07-26T20:54:55.918Z,5.03
2022-07-26T20:57:23.523Z,2.30
2022-07-26T20:59:50.071Z,3.03
2022-07-26T21:02:16.778Z,3.87
2022-07-26T21:04:43.474Z,3.10
2022-07-26T21:07:10.016Z,2.73
2022-07-26T21:09:36.577Z,2.43
2022-07-26T21:12:03.325Z,3.77
2022-07-26T21:14:30.092Z,3.47
2022-07-26T21:16:56.722Z,2.40
2022-07-26T21:19:23.309Z,3.00
2022-07-26T21:21:50.195Z,4.73
2022-07-26T21:24:16.752Z,3.07
2022-07-26T21:26:44.610Z,3.60
2022-07-26T21:29:11.433Z,3.33
2022-07-26T21:31:38.236Z,4.57
2022-07-26T21:34:04.907Z,2.93
2022-07-26T21:36:31.505Z,5.17
2022-07-26T21:38:58.107Z,2.30
2022-07-26T21:41:24.726Z,4.57
2022-07-26T21:43:51.300Z,2.20
2022-07-26T21:46:17.926Z,3.83
2022-07-26T21:48:44.636Z,2.23
2022-07-26T21:51:11.277Z,2.87
2022-07-26T21:53:37.802Z,2.47
2022-07-26T21:56:05.616Z,2.37
2022-07-26T21:58:36.284Z,3.57
2022-07-26T22:01:06.651Z,2.63
2022-07-26T22:03:34.850Z,2.47
2022-07-26T22:06:01.413Z,2.07
2022-07-26T22:08:27.972Z,2.83
2022-07-26T22:10:54.539Z,1.90
2022-07-26T22:13:21.089Z,2.80
2022-07-26T22:15:47.626Z,3.60
2022-07-26T22:18:14.217Z,2.07
2022-07-26T22:20:40.858Z,2.77
2022-07-26T22:23:09.150Z,2.63
2022-07-26T22:25:35.993Z,2.13
2022-07-26T22:28:02.852Z,2.13
2022-07-26T22:30:29.445Z,3.40
2022-07-26T22:32:56.920Z,2.30
2022-07-26T22:35:24.965Z,2.27
2022-07-26T22:37:53.559Z,2.00
2022-07-26T22:40:21.447Z,2.30
2022-07-26T22:42:48.255Z,3.27
2022-07-26T22:45:15.149Z,2.00
2022-07-26T22:47:56.078Z,1.97
2022-07-26T22:50:23.581Z,3.40
2022-07-26T22:52:51.461Z,2.20
2022-07-26T22:55:18.023Z,2.20
2022-07-26T22:57:44.753Z,2.43
2022-07-26T23:00:12.379Z,2.63
2022-07-26T23:02:38.998Z,2.33
2022-07-26T23:05:06.094Z,2.20
2022-07-26T23:07:33.681Z,3.47
2022-07-26T23:10:00.388Z,2.30
2022-07-26T23:12:27.261Z,1.87
2022-07-26T23:14:53.807Z,2.47
2022-07-26T23:17:20.353Z,1.97
2022-07-26T23:19:46.876Z,2.10
2022-07-26T23:22:13.587Z,4.77
2022-07-26T23:24:41.358Z,2.70
2022-07-26T23:27:10.282Z,2.40
2022-07-26T23:29:36.962Z,2.80
2022-07-26T23:32:03.597Z,1.90
2022-07-26T23:34:30.150Z,1.90
2022-07-26T23:36:56.677Z,1.93
2022-07-26T23:39:23.263Z,3.40
2022-07-26T23:41:49.801Z,2.30
2022-07-26T23:44:16.378Z,3.10
2022-07-26T23:46:42.945Z,2.80
2022-07-26T23:49:10.331Z,2.37
2022-07-26T23:51:38.820Z,3.57
2022-07-26T23:54:05.830Z,3.30
2022-07-26T23:56:32.357Z,2.40
2022-07-26T23:58:58.877Z,2.23
